Latimer, Mississippi
Current Conditions -  °F | °C
As of 5:58 AM on Sunday 25 Jan 2015 (Local Time) from KBIX Reporting Station
Clear Clear  
Wind Chill: 42°   Ceiling: Unl
Heat Index: 42°   Visibility: 10mi
Dew Point: 40°   Wind: 3mph
Humidity: 93%   Direction: 300°WNW
Pressure: 30.03"   Gusts: NA
Location:  30.418°N, 88.7558°W
Report Text: KBIX 251158Z AUTO 30003KT 10SM CLR 06/04 A3003 RMK AO2 SLP172 T00550044 10092 20051 58007 $
Loading
Personal Weather Stations






























Interactive Weather Map New forecast layout! Learn more

10-Day Weather Forecast

Advertisements
Track Severe Weather on mobile